Social login voor leden:

1. METAR EBOS

METAR EBOS 200650Z 19008KT 9999 BKN021 BKN040 04/02 Q1019 NOSIG

2. TAF EBOS

TAF EBOS 200650Z 19008KT 9999 BKN021 BKN040 04/02 Q1019 NOSIG

3. NOTAMS EBOS

Klik hier voor een overzicht van de notams.

Deze pagina promoten

Noordzee Vliegclub - Nieuwpoortsesteenweg 947 8400 Oostende - Tel 059 30 04 79 - Dit e-mailadres wordt beveiligd tegen spambots. JavaScript dient ingeschakeld te zijn om het te bekijken.

 - Copyright 2017